sensor_id;sensor_type;location;lat;lon;timestamp;temperature;humidity
73137;DHT22;62977;45.636;11.750;2022-12-18T00:02:16;7.50;76.50
73137;DHT22;62977;45.636;11.750;2022-12-18T00:04:42;7.40;76.50
73137;DHT22;62977;45.636;11.750;2022-12-18T00:07:08;7.50;76.60
73137;DHT22;62977;45.636;11.750;2022-12-18T00:09:34;7.50;76.60
73137;DHT22;62977;45.636;11.750;2022-12-18T00:11:59;7.30;76.70
73137;DHT22;62977;45.636;11.750;2022-12-18T00:14:25;7.20;77.00
73137;DHT22;62977;45.636;11.750;2022-12-18T00:16:51;7.40;77.20
73137;DHT22;62977;45.636;11.750;2022-12-18T00:19:16;7.30;77.00
73137;DHT22;62977;45.636;11.750;2022-12-18T00:21:43;7.30;77.10
73137;DHT22;62977;45.636;11.750;2022-12-18T00:24:10;7.20;77.10
73137;DHT22;62977;45.636;11.750;2022-12-18T00:26:37;7.20;77.00
73137;DHT22;62977;45.636;11.750;2022-12-18T00:29:13;7.10;77.40
73137;DHT22;62977;45.636;11.750;2022-12-18T00:31:40;6.90;77.40
73137;DHT22;62977;45.636;11.750;2022-12-18T00:34:08;6.90;77.40
73137;DHT22;62977;45.636;11.750;2022-12-18T00:36:35;6.90;77.40
73137;DHT22;62977;45.636;11.750;2022-12-18T00:39:03;6.80;77.40
73137;DHT22;62977;45.636;11.750;2022-12-18T00:41:29;6.80;77.50
73137;DHT22;62977;45.636;11.750;2022-12-18T00:44:16;6.80;77.40
73137;DHT22;62977;45.636;11.750;2022-12-18T00:46:43;6.80;77.10
73137;DHT22;62977;45.636;11.750;2022-12-18T00:49:09;6.80;77.20
73137;DHT22;62977;45.636;11.750;2022-12-18T00:51:35;6.80;77.40
73137;DHT22;62977;45.636;11.750;2022-12-18T00:54:01;6.70;77.20
73137;DHT22;62977;45.636;11.750;2022-12-18T00:56:26;6.70;77.40
73137;DHT22;62977;45.636;11.750;2022-12-18T00:58:52;6.70;77.30
73137;DHT22;62977;45.636;11.750;2022-12-18T01:01:18;6.70;77.40
73137;DHT22;62977;45.636;11.750;2022-12-18T01:03:44;6.60;77.20
73137;DHT22;62977;45.636;11.750;2022-12-18T01:06:13;6.60;77.20
73137;DHT22;62977;45.636;11.750;2022-12-18T01:08:39;6.40;77.50
73137;DHT22;62977;45.636;11.750;2022-12-18T01:11:16;6.40;77.40
73137;DHT22;62977;45.636;11.750;2022-12-18T01:13:42;6.40;77.40
73137;DHT22;62977;45.636;11.750;2022-12-18T01:16:10;6.40;77.20
73137;DHT22;62977;45.636;11.750;2022-12-18T01:18:36;6.40;77.40
73137;DHT22;62977;45.636;11.750;2022-12-18T01:21:06;6.20;77.60
73137;DHT22;62977;45.636;11.750;2022-12-18T01:23:32;6.30;77.70
73137;DHT22;62977;45.636;11.750;2022-12-18T01:25:58;6.30;77.40
73137;DHT22;62977;45.636;11.750;2022-12-18T01:28:23;6.40;77.50
73137;DHT22;62977;45.636;11.750;2022-12-18T01:30:49;6.30;77.30
73137;DHT22;62977;45.636;11.750;2022-12-18T01:33:14;6.40;77.30
73137;DHT22;62977;45.636;11.750;2022-12-18T01:35:43;6.10;77.10
73137;DHT22;62977;45.636;11.750;2022-12-18T01:38:09;6.30;77.00
73137;DHT22;62977;45.636;11.750;2022-12-18T01:40:35;6.30;76.70
73137;DHT22;62977;45.636;11.750;2022-12-18T01:43:01;6.40;76.90
73137;DHT22;62977;45.636;11.750;2022-12-18T01:45:28;6.20;76.70
73137;DHT22;62977;45.636;11.750;2022-12-18T01:47:59;6.50;76.80
73137;DHT22;62977;45.636;11.750;2022-12-18T01:50:38;6.30;76.60
73137;DHT22;62977;45.636;11.750;2022-12-18T01:55:36;6.40;76.40
73137;DHT22;62977;45.636;11.750;2022-12-18T01:58:04;6.50;76.30
73137;DHT22;62977;45.636;11.750;2022-12-18T02:00:30;6.30;76.30
73137;DHT22;62977;45.636;11.750;2022-12-18T02:02:56;6.40;76.40
73137;DHT22;62977;45.636;11.750;2022-12-18T02:05:40;6.40;76.40
73137;DHT22;62977;45.636;11.750;2022-12-18T02:13:54;6.30;76.70
73137;DHT22;62977;45.636;11.750;2022-12-18T02:22:32;6.30;77.30
73137;DHT22;62977;45.636;11.750;2022-12-18T02:28:04;6.20;77.40
73137;DHT22;62977;45.636;11.750;2022-12-18T02:30:33;6.00;78.20
73137;DHT22;62977;45.636;11.750;2022-12-18T02:33:01;5.80;78.30
73137;DHT22;62977;45.636;11.750;2022-12-18T02:35:30;5.80;78.60
73137;DHT22;62977;45.636;11.750;2022-12-18T02:37:57;5.50;78.60
73137;DHT22;62977;45.636;11.750;2022-12-18T02:40:25;5.60;79.10
73137;DHT22;62977;45.636;11.750;2022-12-18T02:42:52;5.80;79.10
73137;DHT22;62977;45.636;11.750;2022-12-18T02:45:17;5.80;79.40
73137;DHT22;62977;45.636;11.750;2022-12-18T02:47:47;5.70;79.20
73137;DHT22;62977;45.636;11.750;2022-12-18T02:50:35;5.60;79.40
73137;DHT22;62977;45.636;11.750;2022-12-18T02:53:17;5.70;79.20
73137;DHT22;62977;45.636;11.750;2022-12-18T02:58:50;5.60;79.30
73137;DHT22;62977;45.636;11.750;2022-12-18T03:01:47;5.70;79.30
73137;DHT22;62977;45.636;11.750;2022-12-18T03:04:39;5.70;79.20
73137;DHT22;62977;45.636;11.750;2022-12-18T03:07:11;5.80;79.30
73137;DHT22;62977;45.636;11.750;2022-12-18T03:09:44;5.70;79.30
73137;DHT22;62977;45.636;11.750;2022-12-18T03:12:32;5.60;79.50
73137;DHT22;62977;45.636;11.750;2022-12-18T03:16:04;5.60;79.50
73137;DHT22;62977;45.636;11.750;2022-12-18T03:18:06;5.70;79.50
73137;DHT22;62977;45.636;11.750;2022-12-18T03:20:35;5.50;79.50
73137;DHT22;62977;45.636;11.750;2022-12-18T03:23:09;5.60;79.70
73137;DHT22;62977;45.636;11.750;2022-12-18T03:25:39;5.50;80.10
73137;DHT22;62977;45.636;11.750;2022-12-18T03:28:07;5.40;79.90
73137;DHT22;62977;45.636;11.750;2022-12-18T03:30:37;5.40;79.90
73137;DHT22;62977;45.636;11.750;2022-12-18T03:36:05;5.30;80.00
73137;DHT22;62977;45.636;11.750;2022-12-18T03:38:31;5.20;80.30
73137;DHT22;62977;45.636;11.750;2022-12-18T03:46:41;5.10;80.60
73137;DHT22;62977;45.636;11.750;2022-12-18T03:49:25;4.90;80.70
73137;DHT22;62977;45.636;11.750;2022-12-18T03:54:28;5.00;80.70
73137;DHT22;62977;45.636;11.750;2022-12-18T03:56:59;4.70;80.90
73137;DHT22;62977;45.636;11.750;2022-12-18T03:59:27;4.90;80.80
73137;DHT22;62977;45.636;11.750;2022-12-18T04:01:55;4.80;80.80
73137;DHT22;62977;45.636;11.750;2022-12-18T04:04:24;4.90;80.90
73137;DHT22;62977;45.636;11.750;2022-12-18T04:06:51;4.80;81.00
73137;DHT22;62977;45.636;11.750;2022-12-18T04:09:18;4.70;80.80
73137;DHT22;62977;45.636;11.750;2022-12-18T04:11:46;4.80;80.60
73137;DHT22;62977;45.636;11.750;2022-12-18T04:14:12;4.90;80.10
73137;DHT22;62977;45.636;11.750;2022-12-18T04:16:38;4.80;79.80
73137;DHT22;62977;45.636;11.750;2022-12-18T04:19:04;4.90;79.40
73137;DHT22;62977;45.636;11.750;2022-12-18T04:21:30;5.00;79.30
73137;DHT22;62977;45.636;11.750;2022-12-18T04:23:55;5.00;78.90
73137;DHT22;62977;45.636;11.750;2022-12-18T04:26:21;4.90;79.00
73137;DHT22;62977;45.636;11.750;2022-12-18T04:28:47;5.00;79.40
73137;DHT22;62977;45.636;11.750;2022-12-18T04:31:13;4.90;79.40
73137;DHT22;62977;45.636;11.750;2022-12-18T04:33:38;4.70;79.60
73137;DHT22;62977;45.636;11.750;2022-12-18T04:36:04;4.90;79.70
73137;DHT22;62977;45.636;11.750;2022-12-18T04:38:30;4.80;79.80
73137;DHT22;62977;45.636;11.750;2022-12-18T04:40:56;4.80;80.20
73137;DHT22;62977;45.636;11.750;2022-12-18T04:43:22;4.60;80.40
73137;DHT22;62977;45.636;11.750;2022-12-18T04:45:47;4.80;80.50
73137;DHT22;62977;45.636;11.750;2022-12-18T04:48:13;4.50;80.60
73137;DHT22;62977;45.636;11.750;2022-12-18T04:50:39;4.60;80.90
73137;DHT22;62977;45.636;11.750;2022-12-18T04:53:04;4.40;81.00
73137;DHT22;62977;45.636;11.750;2022-12-18T04:55:30;4.40;81.20
73137;DHT22;62977;45.636;11.750;2022-12-18T04:57:56;4.40;80.90
73137;DHT22;62977;45.636;11.750;2022-12-18T05:00:22;4.60;80.70
73137;DHT22;62977;45.636;11.750;2022-12-18T05:02:48;4.40;80.80
73137;DHT22;62977;45.636;11.750;2022-12-18T05:05:13;4.70;80.70
73137;DHT22;62977;45.636;11.750;2022-12-18T05:07:39;4.70;80.70
73137;DHT22;62977;45.636;11.750;2022-12-18T05:10:05;4.80;80.60
73137;DHT22;62977;45.636;11.750;2022-12-18T05:12:32;4.70;80.30
73137;DHT22;62977;45.636;11.750;2022-12-18T05:14:58;4.60;79.60
73137;DHT22;62977;45.636;11.750;2022-12-18T05:17:24;4.90;79.30
73137;DHT22;62977;45.636;11.750;2022-12-18T05:19:49;4.90;79.00
73137;DHT22;62977;45.636;11.750;2022-12-18T05:22:15;4.90;78.90
73137;DHT22;62977;45.636;11.750;2022-12-18T05:24:41;5.00;78.60
73137;DHT22;62977;45.636;11.750;2022-12-18T05:27:06;5.00;78.60
73137;DHT22;62977;45.636;11.750;2022-12-18T05:29:32;5.10;77.70
73137;DHT22;62977;45.636;11.750;2022-12-18T05:31:58;5.20;77.40
73137;DHT22;62977;45.636;11.750;2022-12-18T05:34:23;5.30;77.10
73137;DHT22;62977;45.636;11.750;2022-12-18T05:36:49;5.30;77.00
73137;DHT22;62977;45.636;11.750;2022-12-18T05:39:15;5.30;77.20
73137;DHT22;62977;45.636;11.750;2022-12-18T05:41:40;5.40;77.00
73137;DHT22;62977;45.636;11.750;2022-12-18T05:44:06;5.40;77.30
73137;DHT22;62977;45.636;11.750;2022-12-18T05:46:32;5.50;76.90
73137;DHT22;62977;45.636;11.750;2022-12-18T05:49:01;5.50;76.90
73137;DHT22;62977;45.636;11.750;2022-12-18T05:51:26;5.30;77.30
73137;DHT22;62977;45.636;11.750;2022-12-18T05:53:52;5.20;77.10
73137;DHT22;62977;45.636;11.750;2022-12-18T05:56:20;5.20;77.40
73137;DHT22;62977;45.636;11.750;2022-12-18T05:58:46;5.20;77.50
73137;DHT22;62977;45.636;11.750;2022-12-18T06:01:22;5.20;77.60
73137;DHT22;62977;45.636;11.750;2022-12-18T06:03:48;5.20;77.70
73137;DHT22;62977;45.636;11.750;2022-12-18T06:06:17;5.00;77.80
73137;DHT22;62977;45.636;11.750;2022-12-18T06:08:43;5.00;77.40
73137;DHT22;62977;45.636;11.750;2022-12-18T06:11:10;4.90;78.10
73137;DHT22;62977;45.636;11.750;2022-12-18T06:13:36;5.00;78.30
73137;DHT22;62977;45.636;11.750;2022-12-18T06:16:06;4.90;78.30
73137;DHT22;62977;45.636;11.750;2022-12-18T06:18:33;4.80;78.40
73137;DHT22;62977;45.636;11.750;2022-12-18T06:21:00;4.70;78.90
73137;DHT22;62977;45.636;11.750;2022-12-18T06:23:26;4.50;79.10
73137;DHT22;62977;45.636;11.750;2022-12-18T06:25:52;4.40;79.40
73137;DHT22;62977;45.636;11.750;2022-12-18T06:28:18;4.40;79.80
73137;DHT22;62977;45.636;11.750;2022-12-18T06:30:45;4.40;79.80
73137;DHT22;62977;45.636;11.750;2022-12-18T06:33:10;4.40;79.90
73137;DHT22;62977;45.636;11.750;2022-12-18T06:35:36;4.30;79.90
73137;DHT22;62977;45.636;11.750;2022-12-18T06:38:02;4.10;80.20
73137;DHT22;62977;45.636;11.750;2022-12-18T06:40:28;4.20;80.60
73137;DHT22;62977;45.636;11.750;2022-12-18T06:42:54;4.20;80.50
73137;DHT22;62977;45.636;11.750;2022-12-18T06:45:19;4.20;80.60
73137;DHT22;62977;45.636;11.750;2022-12-18T06:47:45;4.20;80.60
73137;DHT22;62977;45.636;11.750;2022-12-18T06:50:12;4.20;80.60
73137;DHT22;62977;45.636;11.750;2022-12-18T06:52:37;4.10;80.70
73137;DHT22;62977;45.636;11.750;2022-12-18T06:55:05;4.10;81.00
73137;DHT22;62977;45.636;11.750;2022-12-18T06:57:30;4.00;81.10
73137;DHT22;62977;45.636;11.750;2022-12-18T06:59:56;3.90;81.20
73137;DHT22;62977;45.636;11.750;2022-12-18T07:02:22;3.90;81.60
73137;DHT22;62977;45.636;11.750;2022-12-18T07:04:47;3.90;81.90
73137;DHT22;62977;45.636;11.750;2022-12-18T07:07:14;3.90;82.10
73137;DHT22;62977;45.636;11.750;2022-12-18T07:09:40;4.10;82.10
73137;DHT22;62977;45.636;11.750;2022-12-18T07:12:06;4.10;82.10
73137;DHT22;62977;45.636;11.750;2022-12-18T07:14:33;3.90;82.20
73137;DHT22;62977;45.636;11.750;2022-12-18T07:16:59;3.90;82.10
73137;DHT22;62977;45.636;11.750;2022-12-18T07:19:24;4.00;82.00
73137;DHT22;62977;45.636;11.750;2022-12-18T07:21:50;4.10;81.80
73137;DHT22;62977;45.636;11.750;2022-12-18T07:24:16;4.10;81.90
73137;DHT22;62977;45.636;11.750;2022-12-18T07:26:42;4.00;82.00
73137;DHT22;62977;45.636;11.750;2022-12-18T07:29:08;4.10;81.90
73137;DHT22;62977;45.636;11.750;2022-12-18T07:31:33;4.30;82.00
73137;DHT22;62977;45.636;11.750;2022-12-18T07:33:59;4.20;82.00
73137;DHT22;62977;45.636;11.750;2022-12-18T07:36:25;4.20;82.20
73137;DHT22;62977;45.636;11.750;2022-12-18T07:38:51;4.40;81.70
73137;DHT22;62977;45.636;11.750;2022-12-18T07:41:18;4.30;81.70
73137;DHT22;62977;45.636;11.750;2022-12-18T07:43:44;4.50;81.60
73137;DHT22;62977;45.636;11.750;2022-12-18T07:46:11;4.40;81.60
73137;DHT22;62977;45.636;11.750;2022-12-18T07:48:42;4.40;81.80
73137;DHT22;62977;45.636;11.750;2022-12-18T07:51:08;4.30;82.20
73137;DHT22;62977;45.636;11.750;2022-12-18T07:53:35;4.40;82.30
73137;DHT22;62977;45.636;11.750;2022-12-18T07:56:04;4.20;82.60
73137;DHT22;62977;45.636;11.750;2022-12-18T07:58:30;4.40;82.70
73137;DHT22;62977;45.636;11.750;2022-12-18T08:01:09;4.40;82.40
73137;DHT22;62977;45.636;11.750;2022-12-18T08:03:36;4.60;82.10
73137;DHT22;62977;45.636;11.750;2022-12-18T08:06:04;4.70;81.50
73137;DHT22;62977;45.636;11.750;2022-12-18T08:08:30;4.70;81.40
73137;DHT22;62977;45.636;11.750;2022-12-18T08:10:57;4.90;81.40
73137;DHT22;62977;45.636;11.750;2022-12-18T08:13:25;5.20;81.50
73137;DHT22;62977;45.636;11.750;2022-12-18T08:16:03;5.30;81.20
73137;DHT22;62977;45.636;11.750;2022-12-18T08:18:32;5.30;81.10
73137;DHT22;62977;45.636;11.750;2022-12-18T08:21:10;5.40;81.10
73137;DHT22;62977;45.636;11.750;2022-12-18T08:23:36;5.30;81.30
73137;DHT22;62977;45.636;11.750;2022-12-18T08:26:03;5.40;81.20
73137;DHT22;62977;45.636;11.750;2022-12-18T08:28:29;5.60;81.30
73137;DHT22;62977;45.636;11.750;2022-12-18T08:30:55;5.70;81.10
73137;DHT22;62977;45.636;11.750;2022-12-18T08:33:20;5.90;81.20
73137;DHT22;62977;45.636;11.750;2022-12-18T08:35:46;5.90;80.90
73137;DHT22;62977;45.636;11.750;2022-12-18T08:38:12;6.00;80.80
73137;DHT22;62977;45.636;11.750;2022-12-18T08:40:37;6.20;80.70
73137;DHT22;62977;45.636;11.750;2022-12-18T08:43:03;6.30;80.80
73137;DHT22;62977;45.636;11.750;2022-12-18T08:45:47;6.50;80.80
73137;DHT22;62977;45.636;11.750;2022-12-18T08:48:13;6.50;80.70
73137;DHT22;62977;45.636;11.750;2022-12-18T08:50:39;6.50;80.40
73137;DHT22;62977;45.636;11.750;2022-12-18T08:53:05;6.60;80.00
73137;DHT22;62977;45.636;11.750;2022-12-18T08:55:31;6.50;79.70
73137;DHT22;62977;45.636;11.750;2022-12-18T08:57:57;6.70;80.10
73137;DHT22;62977;45.636;11.750;2022-12-18T09:00:22;6.80;79.40
73137;DHT22;62977;45.636;11.750;2022-12-18T09:02:48;6.80;79.70
73137;DHT22;62977;45.636;11.750;2022-12-18T09:05:14;6.90;79.50
73137;DHT22;62977;45.636;11.750;2022-12-18T09:07:40;6.80;79.50
73137;DHT22;62977;45.636;11.750;2022-12-18T09:10:06;6.90;79.30
73137;DHT22;62977;45.636;11.750;2022-12-18T09:12:32;7.10;79.40
73137;DHT22;62977;45.636;11.750;2022-12-18T09:14:57;7.20;79.00
73137;DHT22;62977;45.636;11.750;2022-12-18T09:17:23;7.40;78.90
73137;DHT22;62977;45.636;11.750;2022-12-18T09:19:49;7.60;78.40
73137;DHT22;62977;45.636;11.750;2022-12-18T09:22:14;7.60;77.80
73137;DHT22;62977;45.636;11.750;2022-12-18T09:24:40;7.70;78.00
73137;DHT22;62977;45.636;11.750;2022-12-18T09:27:06;7.90;77.50
73137;DHT22;62977;45.636;11.750;2022-12-18T09:29:32;8.20;77.20
73137;DHT22;62977;45.636;11.750;2022-12-18T09:31:58;7.90;77.00
73137;DHT22;62977;45.636;11.750;2022-12-18T09:34:24;8.40;76.90
73137;DHT22;62977;45.636;11.750;2022-12-18T09:36:50;8.80;76.50
73137;DHT22;62977;45.636;11.750;2022-12-18T09:39:16;8.80;75.80
73137;DHT22;62977;45.636;11.750;2022-12-18T09:44:19;8.60;75.30
73137;DHT22;62977;45.636;11.750;2022-12-18T09:47:36;9.10;74.90
73137;DHT22;62977;45.636;11.750;2022-12-18T09:50:07;9.40;75.30
73137;DHT22;62977;45.636;11.750;2022-12-18T09:52:48;9.80;74.90
73137;DHT22;62977;45.636;11.750;2022-12-18T09:55:37;9.80;74.80
73137;DHT22;62977;45.636;11.750;2022-12-18T09:58:28;9.90;75.00
73137;DHT22;62977;45.636;11.750;2022-12-18T10:00:55;10.10;75.00
73137;DHT22;62977;45.636;11.750;2022-12-18T10:03:21;10.40;73.10
73137;DHT22;62977;45.636;11.750;2022-12-18T10:06:02;10.80;71.90
73137;DHT22;62977;45.636;11.750;2022-12-18T10:13:41;11.90;71.40
73137;DHT22;62977;45.636;11.750;2022-12-18T10:16:17;12.30;71.10
73137;DHT22;62977;45.636;11.750;2022-12-18T10:24:32;12.70;70.40
73137;DHT22;62977;45.636;11.750;2022-12-18T10:27:14;12.70;70.10
73137;DHT22;62977;45.636;11.750;2022-12-18T10:29:42;12.70;62.90
73137;DHT22;62977;45.636;11.750;2022-12-18T10:32:17;13.00;61.80
73137;DHT22;62977;45.636;11.750;2022-12-18T10:34:47;12.80;60.00
73137;DHT22;62977;45.636;11.750;2022-12-18T10:37:17;12.70;60.40
73137;DHT22;62977;45.636;11.750;2022-12-18T10:39:44;12.60;61.40
73137;DHT22;62977;45.636;11.750;2022-12-18T10:42:18;12.40;62.40
73137;DHT22;62977;45.636;11.750;2022-12-18T10:44:44;12.30;61.60
73137;DHT22;62977;45.636;11.750;2022-12-18T10:47:15;12.40;61.80
73137;DHT22;62977;45.636;11.750;2022-12-18T10:49:52;12.60;61.50
73137;DHT22;62977;45.636;11.750;2022-12-18T10:52:25;12.90;60.40
73137;DHT22;62977;45.636;11.750;2022-12-18T10:55:03;13.40;59.80
73137;DHT22;62977;45.636;11.750;2022-12-18T10:57:30;13.60;59.90
73137;DHT22;62977;45.636;11.750;2022-12-18T10:59:59;13.50;57.90
73137;DHT22;62977;45.636;11.750;2022-12-18T11:02:37;13.30;57.40
73137;DHT22;62977;45.636;11.750;2022-12-18T11:07:49;13.10;58.10
73137;DHT22;62977;45.636;11.750;2022-12-18T11:10:21;13.50;56.50
73137;DHT22;62977;45.636;11.750;2022-12-18T11:12:47;13.80;56.10
73137;DHT22;62977;45.636;11.750;2022-12-18T11:15:34;13.50;54.50
73137;DHT22;62977;45.636;11.750;2022-12-18T11:17:59;14.00;55.30
73137;DHT22;62977;45.636;11.750;2022-12-18T11:20:32;14.10;54.40
73137;DHT22;62977;45.636;11.750;2022-12-18T11:23:11;14.10;53.90
73137;DHT22;62977;45.636;11.750;2022-12-18T11:25:38;13.70;55.70
73137;DHT22;62977;45.636;11.750;2022-12-18T11:28:06;13.50;54.90
73137;DHT22;62977;45.636;11.750;2022-12-18T11:31:12;13.90;55.60
73137;DHT22;62977;45.636;11.750;2022-12-18T11:33:45;14.00;54.10
73137;DHT22;62977;45.636;11.750;2022-12-18T11:36:12;14.00;54.40
73137;DHT22;62977;45.636;11.750;2022-12-18T11:38:40;14.20;53.40
73137;DHT22;62977;45.636;11.750;2022-12-18T11:43:58;14.20;53.10
73137;DHT22;62977;45.636;11.750;2022-12-18T11:49:12;14.90;51.70
73137;DHT22;62977;45.636;11.750;2022-12-18T11:51:59;15.20;49.60
73137;DHT22;62977;45.636;11.750;2022-12-18T11:54:27;15.40;50.20
73137;DHT22;62977;45.636;11.750;2022-12-18T11:57:03;15.60;49.00
73137;DHT22;62977;45.636;11.750;2022-12-18T12:23:51;16.80;45.60
73137;DHT22;62977;45.636;11.750;2022-12-18T12:26:37;16.40;47.10
73137;DHT22;62977;45.636;11.750;2022-12-18T12:32:12;16.50;45.80
73137;DHT22;62977;45.636;11.750;2022-12-18T12:40:32;17.40;46.20
73137;DHT22;62977;45.636;11.750;2022-12-18T12:43:22;17.80;44.40
73137;DHT22;62977;45.636;11.750;2022-12-18T12:45:58;18.10;43.70
73137;DHT22;62977;45.636;11.750;2022-12-18T12:51:16;18.10;44.10
73137;DHT22;62977;45.636;11.750;2022-12-18T12:53:44;18.00;42.80
73137;DHT22;62977;45.636;11.750;2022-12-18T12:56:13;18.00;42.30
73137;DHT22;62977;45.636;11.750;2022-12-18T12:59:02;18.40;42.30
73137;DHT22;62977;45.636;11.750;2022-12-18T13:01:38;17.70;41.60
73137;DHT22;62977;45.636;11.750;2022-12-18T13:06:53;18.30;40.80
73137;DHT22;62977;45.636;11.750;2022-12-18T13:09:22;18.20;40.30
73137;DHT22;62977;45.636;11.750;2022-12-18T13:11:48;18.70;39.40
73137;DHT22;62977;45.636;11.750;2022-12-18T13:14:37;18.60;40.00
73137;DHT22;62977;45.636;11.750;2022-12-18T13:19:52;18.80;40.10
73137;DHT22;62977;45.636;11.750;2022-12-18T13:22:54;19.00;39.50
73137;DHT22;62977;45.636;11.750;2022-12-18T13:25:40;18.70;39.00
73137;DHT22;62977;45.636;11.750;2022-12-18T13:30:59;18.20;40.20
73137;DHT22;62977;45.636;11.750;2022-12-18T13:36:03;18.10;40.00
73137;DHT22;62977;45.636;11.750;2022-12-18T13:38:35;18.20;40.10
73137;DHT22;62977;45.636;11.750;2022-12-18T13:43:46;15.90;44.80
73137;DHT22;62977;45.636;11.750;2022-12-18T13:46:44;15.00;47.00
73137;DHT22;62977;45.636;11.750;2022-12-18T13:51:44;13.60;51.00
73137;DHT22;62977;45.636;11.750;2022-12-18T13:54:30;13.40;51.80
73137;DHT22;62977;45.636;11.750;2022-12-18T13:56:58;13.10;52.10
73137;DHT22;62977;45.636;11.750;2022-12-18T13:59:37;12.90;52.50
73137;DHT22;62977;45.636;11.750;2022-12-18T14:02:20;12.70;55.40
73137;DHT22;62977;45.636;11.750;2022-12-18T14:04:47;12.30;55.20
73137;DHT22;62977;45.636;11.750;2022-12-18T14:07:15;12.20;55.70
73137;DHT22;62977;45.636;11.750;2022-12-18T14:09:56;12.00;56.70
73137;DHT22;62977;45.636;11.750;2022-12-18T14:12:28;11.80;57.00
73137;DHT22;62977;45.636;11.750;2022-12-18T14:15:33;11.70;57.90
73137;DHT22;62977;45.636;11.750;2022-12-18T14:18:46;11.70;57.50
73137;DHT22;62977;45.636;11.750;2022-12-18T14:20:45;11.50;58.00
73137;DHT22;62977;45.636;11.750;2022-12-18T14:25:54;11.40;58.30
73137;DHT22;62977;45.636;11.750;2022-12-18T14:28:20;11.30;57.50
73137;DHT22;62977;45.636;11.750;2022-12-18T14:30:49;11.40;58.50
73137;DHT22;62977;45.636;11.750;2022-12-18T14:33:16;11.40;58.20
73137;DHT22;62977;45.636;11.750;2022-12-18T14:36:04;12.00;57.60
73137;DHT22;62977;45.636;11.750;2022-12-18T14:38:35;12.20;57.00
73137;DHT22;62977;45.636;11.750;2022-12-18T14:43:35;11.90;57.40
73137;DHT22;62977;45.636;11.750;2022-12-18T14:46:04;11.60;58.20
73137;DHT22;62977;45.636;11.750;2022-12-18T14:48:39;11.30;59.70
73137;DHT22;62977;45.636;11.750;2022-12-18T14:51:19;11.00;60.50
73137;DHT22;62977;45.636;11.750;2022-12-18T14:53:48;10.80;60.80
73137;DHT22;62977;45.636;11.750;2022-12-18T14:56:23;10.60;61.30
73137;DHT22;62977;45.636;11.750;2022-12-18T15:03:52;10.40;62.20
73137;DHT22;62977;45.636;11.750;2022-12-18T15:08:50;10.00;70.00
73137;DHT22;62977;45.636;11.750;2022-12-18T15:11:26;10.10;70.00
73137;DHT22;62977;45.636;11.750;2022-12-18T15:13:52;10.00;70.20
73137;DHT22;62977;45.636;11.750;2022-12-18T15:16:18;10.00;70.20
73137;DHT22;62977;45.636;11.750;2022-12-18T15:18:45;9.90;70.40
73137;DHT22;62977;45.636;11.750;2022-12-18T15:21:18;10.00;70.70
73137;DHT22;62977;45.636;11.750;2022-12-18T15:26:12;9.80;71.30
73137;DHT22;62977;45.636;11.750;2022-12-18T15:28:49;9.80;71.10
73137;DHT22;62977;45.636;11.750;2022-12-18T15:34:05;9.60;71.30
73137;DHT22;62977;45.636;11.750;2022-12-18T15:36:31;9.60;71.80
73137;DHT22;62977;45.636;11.750;2022-12-18T15:38:57;9.60;72.60
73137;DHT22;62977;45.636;11.750;2022-12-18T15:41:23;9.30;72.30
73137;DHT22;62977;45.636;11.750;2022-12-18T15:43:51;9.10;72.40
73137;DHT22;62977;45.636;11.750;2022-12-18T15:46:18;8.90;72.40
73137;DHT22;62977;45.636;11.750;2022-12-18T15:48:54;8.80;72.50
73137;DHT22;62977;45.636;11.750;2022-12-18T15:51:28;8.70;72.90
73137;DHT22;62977;45.636;11.750;2022-12-18T15:53:56;8.70;73.10
73137;DHT22;62977;45.636;11.750;2022-12-18T15:56:24;8.60;73.00
73137;DHT22;62977;45.636;11.750;2022-12-18T15:59:16;8.60;73.10
73137;DHT22;62977;45.636;11.750;2022-12-18T16:01:44;8.50;73.20
73137;DHT22;62977;45.636;11.750;2022-12-18T16:04:15;8.20;73.70
73137;DHT22;62977;45.636;11.750;2022-12-18T16:06:42;8.20;74.10
73137;DHT22;62977;45.636;11.750;2022-12-18T16:09:07;8.20;73.90
73137;DHT22;62977;45.636;11.750;2022-12-18T16:11:35;8.20;74.70
73137;DHT22;62977;45.636;11.750;2022-12-18T16:14:12;8.10;74.90
73137;DHT22;62977;45.636;11.750;2022-12-18T16:16:38;8.10;75.00
73137;DHT22;62977;45.636;11.750;2022-12-18T16:19:04;8.10;75.00
73137;DHT22;62977;45.636;11.750;2022-12-18T16:21:29;8.10;75.20
73137;DHT22;62977;45.636;11.750;2022-12-18T16:23:55;8.10;75.50
73137;DHT22;62977;45.636;11.750;2022-12-18T16:26:21;8.00;75.80
73137;DHT22;62977;45.636;11.750;2022-12-18T16:28:47;7.90;75.80
73137;DHT22;62977;45.636;11.750;2022-12-18T16:31:12;7.90;75.70
73137;DHT22;62977;45.636;11.750;2022-12-18T16:33:38;7.80;75.70
73137;DHT22;62977;45.636;11.750;2022-12-18T16:36:04;7.70;75.80
73137;DHT22;62977;45.636;11.750;2022-12-18T16:38:30;7.70;76.00
73137;DHT22;62977;45.636;11.750;2022-12-18T16:40:55;7.70;76.20
73137;DHT22;62977;45.636;11.750;2022-12-18T16:43:39;7.40;76.50
73137;DHT22;62977;45.636;11.750;2022-12-18T16:46:05;7.30;76.70
73137;DHT22;62977;45.636;11.750;2022-12-18T16:48:31;7.40;76.60
73137;DHT22;62977;45.636;11.750;2022-12-18T16:51:01;7.30;76.70
73137;DHT22;62977;45.636;11.750;2022-12-18T16:53:29;7.10;76.90
73137;DHT22;62977;45.636;11.750;2022-12-18T16:55:55;7.20;76.80
73137;DHT22;62977;45.636;11.750;2022-12-18T16:58:21;7.20;77.00
73137;DHT22;62977;45.636;11.750;2022-12-18T17:00:47;7.20;77.00
73137;DHT22;62977;45.636;11.750;2022-12-18T17:03:12;7.10;76.90
73137;DHT22;62977;45.636;11.750;2022-12-18T17:05:38;7.00;77.10
73137;DHT22;62977;45.636;11.750;2022-12-18T17:08:04;7.00;77.10
73137;DHT22;62977;45.636;11.750;2022-12-18T17:10:30;6.90;77.10
73137;DHT22;62977;45.636;11.750;2022-12-18T17:12:55;6.70;77.30
73137;DHT22;62977;45.636;11.750;2022-12-18T17:15:21;6.50;77.50
73137;DHT22;62977;45.636;11.750;2022-12-18T17:17:48;6.30;77.60
73137;DHT22;62977;45.636;11.750;2022-12-18T17:20:14;6.20;77.70
73137;DHT22;62977;45.636;11.750;2022-12-18T17:22:40;6.20;77.90
73137;DHT22;62977;45.636;11.750;2022-12-18T17:25:06;6.10;77.70
73137;DHT22;62977;45.636;11.750;2022-12-18T17:27:31;6.10;77.70
73137;DHT22;62977;45.636;11.750;2022-12-18T17:29:57;6.10;77.60
73137;DHT22;62977;45.636;11.750;2022-12-18T17:32:23;6.00;77.30
73137;DHT22;62977;45.636;11.750;2022-12-18T17:34:49;6.20;77.90
73137;DHT22;62977;45.636;11.750;2022-12-18T17:37:15;6.00;77.70
73137;DHT22;62977;45.636;11.750;2022-12-18T17:39:41;6.00;77.80
73137;DHT22;62977;45.636;11.750;2022-12-18T17:42:07;6.10;77.60
73137;DHT22;62977;45.636;11.750;2022-12-18T17:44:35;6.00;77.80
73137;DHT22;62977;45.636;11.750;2022-12-18T17:47:01;5.90;78.00